PWSweather.com
Personal Weather Stations
Station Observations
SD92115WX
El Cerrito Stoneybluff, San Diego, CA 92115

El Cerrito StoneybluffSan Diego, CA 92115

Lat: 32.754096, Lon: -117.066705

Elevation: 420

Station Type: Davis Vantage Vue

http://stoneybluff.com

High Low Average
Temperature 59.2°F15.1°C 43.3°F6.3°C 50.6°F10.3°C
Dew Point 50.4°F10.2°C 41.2°F5.1°C 46.0°F7.8°C
Winds 5.6 mph 9.0 kmh Calm Calm 1.0 mph SW1.6 kmh SW
Wind Gusts 11.6 mph18.7 kmh -- 2.0 mph3.2 kmh
Humidity 95% 58% 85%
Pressure 29.91 in1012.9 mb 29.72 in1006.4 mb -
Precipitation 0.19 in4.8 mm - -
Hour Temp Dew Point Humidity Winds Wind Gusts Pressure Precip Precip Rate Daily Precip Total
12:04 AM 44.4°F6.9°C 42.3°F5.7°C 92% Calm Calm -- 29.91 in1012.9 mb 0.00 in0.0 mm 0.00 in0.0 mm 0.00 in0.0 mm
12:09 AM 44.4°F6.9°C 42.3°F5.7°C 92% Calm Calm -- 29.91 in1012.9 mb 0.00 in0.0 mm 0.00 in0.0 mm 0.00 in0.0 mm
12:14 AM 44.2°F6.8°C 42.1°F5.6°C 92% Calm Calm -- 29.91 in1012.9 mb 0.00 in0.0 mm 0.00 in0.0 mm 0.00 in0.0 mm
12:19 AM 44.1°F6.7°C 41.9°F5.5°C 92% Calm Calm -- 29.91 in1012.9 mb 0.00 in0.0 mm 0.00 in0.0 mm 0.00 in0.0 mm
12:24 AM 43.9°F6.6°C 41.7°F5.4°C 92% Calm Calm -- 29.91 in1012.9 mb 0.00 in0.0 mm 0.00 in0.0 mm 0.00 in0.0 mm
12:29 AM 44.1°F6.7°C 42.1°F5.6°C 93% Calm Calm -- 29.91 in1012.9 mb 0.00 in0.0 mm 0.00 in0.0 mm 0.00 in0.0 mm
12:34 AM 44.2°F6.8°C 42.1°F5.6°C 92% Calm Calm -- 29.91 in1012.9 mb 0.00 in0.0 mm 0.00 in0.0 mm 0.00 in0.0 mm
12:39 AM 44.1°F6.7°C 41.9°F5.5°C 92% Calm Calm -- 29.91 in1012.9 mb 0.00 in0.0 mm 0.00 in0.0 mm 0.00 in0.0 mm
12:44 AM 43.9°F6.6°C 41.7°F5.4°C 92% Calm Calm -- 29.91 in1012.9 mb 0.00 in0.0 mm 0.00 in0.0 mm 0.00 in0.0 mm
12:49 AM 43.7°F6.5°C 41.5°F5.3°C 92% Calm Calm -- 29.91 in1012.9 mb 0.00 in0.0 mm 0.00 in0.0 mm 0.00 in0.0 mm
12:54 AM 43.5°F6.4°C 41.4°F5.2°C 92% Calm Calm -- 29.91 in1012.9 mb 0.00 in0.0 mm 0.00 in0.0 mm 0.00 in0.0 mm
12:59 AM 43.3°F6.3°C 41.2°F5.1°C 92% Calm Calm -- 29.91 in1012.9 mb 0.00 in0.0 mm 0.00 in0.0 mm 0.00 in0.0 mm
01:04 AM 43.3°F6.3°C 41.5°F5.3°C 93% Calm Calm -- 29.91 in1012.9 mb 0.00 in0.0 mm 0.00 in0.0 mm 0.00 in0.0 mm
01:09 AM 43.9°F6.6°C 42.3°F5.7°C 94% Calm Calm -- 29.91 in1012.9 mb 0.00 in0.0 mm 0.00 in0.0 mm 0.00 in0.0 mm
01:14 AM 44.1°F6.7°C 42.4°F5.8°C 94% Calm Calm -- 29.91 in1012.9 mb 0.00 in0.0 mm 0.00 in0.0 mm 0.00 in0.0 mm
01:19 AM 44.2°F6.8°C 42.6°F5.9°C 94% Calm Calm -- 29.91 in1012.9 mb 0.00 in0.0 mm 0.00 in0.0 mm 0.00 in0.0 mm
01:24 AM 44.4°F6.9°C 42.8°F6.0°C 94% Calm Calm 1.1 mph1.8 kmh 29.91 in1012.9 mb 0.00 in0.0 mm 0.00 in0.0 mm 0.00 in0.0 mm
01:29 AM 44.4°F6.9°C 42.4°F5.8°C 93% Calm Calm -- 29.90 in1012.5 mb 0.00 in0.0 mm 0.00 in0.0 mm 0.00 in0.0 mm
01:34 AM 44.4°F6.9°C 42.8°F6.0°C 94% Calm Calm -- 29.90 in1012.5 mb 0.00 in0.0 mm 0.00 in0.0 mm 0.00 in0.0 mm
01:39 AM 44.6°F7.0°C 42.6°F5.9°C 93% Calm Calm -- 29.90 in1012.5 mb 0.00 in0.0 mm 0.00 in0.0 mm 0.00 in0.0 mm
01:44 AM 44.8°F7.1°C 43.2°F6.2°C 94% Calm Calm 1.1 mph1.8 kmh 29.89 in1012.2 mb 0.00 in0.0 mm 0.00 in0.0 mm 0.00 in0.0 mm
01:49 AM 44.6°F7.0°C 42.6°F5.9°C 93% Calm Calm -- 29.89 in1012.2 mb 0.00 in0.0 mm 0.00 in0.0 mm 0.00 in0.0 mm
01:54 AM 44.8°F7.1°C 43.2°F6.2°C 94% Calm Calm -- 29.88 in1011.9 mb 0.00 in0.0 mm 0.00 in0.0 mm 0.00 in0.0 mm
01:59 AM 44.8°F7.1°C 43.2°F6.2°C 94% Calm Calm -- 29.88 in1011.9 mb 0.00 in0.0 mm 0.00 in0.0 mm 0.00 in0.0 mm
02:04 AM 45.0°F7.2°C 43.0°F6.1°C 93% Calm Calm -- 29.88 in1011.9 mb 0.00 in0.0 mm 0.00 in0.0 mm 0.00 in0.0 mm
02:09 AM 45.0°F7.2°C 43.0°F6.1°C 93% Calm Calm -- 29.87 in1011.5 mb 0.00 in0.0 mm 0.00 in0.0 mm 0.00 in0.0 mm
02:14 AM 44.8°F7.1°C 42.8°F6.0°C 93% Calm Calm -- 29.87 in1011.5 mb 0.00 in0.0 mm 0.00 in0.0 mm 0.00 in0.0 mm
02:19 AM 44.8°F7.1°C 42.8°F6.0°C 93% Calm Calm 1.1 mph1.8 kmh 29.87 in1011.5 mb 0.00 in0.0 mm 0.00 in0.0 mm 0.00 in0.0 mm
02:24 AM 44.8°F7.1°C 42.8°F6.0°C 93% Calm Calm 2.0 mph3.2 kmh 29.87 in1011.5 mb 0.00 in0.0 mm 0.00 in0.0 mm 0.00 in0.0 mm
02:29 AM 44.8°F7.1°C 42.8°F6.0°C 93% Calm Calm -- 29.87 in1011.5 mb 0.00 in0.0 mm 0.00 in0.0 mm 0.00 in0.0 mm
02:34 AM 44.4°F6.9°C 42.4°F5.8°C 93% Calm Calm -- 29.87 in1011.5 mb 0.00 in0.0 mm 0.00 in0.0 mm 0.00 in0.0 mm
02:39 AM 44.4°F6.9°C 42.4°F5.8°C 93% Calm Calm 1.1 mph1.8 kmh 29.87 in1011.5 mb 0.00 in0.0 mm 0.00 in0.0 mm 0.00 in0.0 mm
02:44 AM 44.2°F6.8°C 42.3°F5.7°C 93% 0.2 mph E0.3 kmh E 2.0 mph3.2 kmh 29.87 in1011.5 mb 0.00 in0.0 mm 0.00 in0.0 mm 0.00 in0.0 mm
02:49 AM 44.2°F6.8°C 42.3°F5.7°C 93% Calm Calm 1.1 mph1.8 kmh 29.86 in1011.2 mb 0.00 in0.0 mm 0.00 in0.0 mm 0.00 in0.0 mm
02:54 AM 44.2°F6.8°C 42.3°F5.7°C 93% Calm Calm -- 29.85 in1010.8 mb 0.00 in0.0 mm 0.00 in0.0 mm 0.00 in0.0 mm
02:59 AM 44.1°F6.7°C 42.1°F5.6°C 93% Calm Calm -- 29.85 in1010.8 mb 0.00 in0.0 mm 0.00 in0.0 mm 0.00 in0.0 mm
03:04 AM 44.1°F6.7°C 42.1°F5.6°C 93% Calm Calm -- 29.85 in1010.8 mb 0.00 in0.0 mm 0.00 in0.0 mm 0.00 in0.0 mm
03:09 AM 44.2°F6.8°C 42.3°F5.7°C 93% Calm Calm -- 29.85 in1010.8 mb 0.00 in0.0 mm 0.00 in0.0 mm 0.00 in0.0 mm
03:14 AM 44.2°F6.8°C 42.3°F5.7°C 93% Calm Calm -- 29.85 in1010.8 mb 0.00 in0.0 mm 0.00 in0.0 mm 0.00 in0.0 mm
03:19 AM 44.2°F6.8°C 42.3°F5.7°C 93% Calm Calm -- 29.85 in1010.8 mb 0.00 in0.0 mm 0.00 in0.0 mm 0.00 in0.0 mm
03:24 AM 44.4°F6.9°C 42.4°F5.8°C 93% Calm Calm 1.1 mph1.8 kmh 29.85 in1010.8 mb 0.00 in0.0 mm 0.00 in0.0 mm 0.00 in0.0 mm
03:29 AM 44.4°F6.9°C 42.4°F5.8°C 93% Calm Calm -- 29.85 in1010.8 mb 0.00 in0.0 mm 0.00 in0.0 mm 0.00 in0.0 mm
03:34 AM 44.6°F7.0°C 42.6°F5.9°C 93% Calm Calm -- 29.84 in1010.5 mb 0.00 in0.0 mm 0.00 in0.0 mm 0.00 in0.0 mm
03:39 AM 44.6°F7.0°C 42.6°F5.9°C 93% Calm Calm -- 29.83 in1010.2 mb 0.00 in0.0 mm 0.00 in0.0 mm 0.00 in0.0 mm
03:44 AM 44.8°F7.1°C 42.8°F6.0°C 93% Calm Calm -- 29.83 in1010.2 mb 0.00 in0.0 mm 0.00 in0.0 mm 0.00 in0.0 mm
03:49 AM 44.8°F7.1°C 42.8°F6.0°C 93% Calm Calm -- 29.83 in1010.2 mb 0.00 in0.0 mm 0.00 in0.0 mm 0.00 in0.0 mm
03:54 AM 44.8°F7.1°C 42.8°F6.0°C 93% Calm Calm -- 29.83 in1010.2 mb 0.00 in0.0 mm 0.00 in0.0 mm 0.00 in0.0 mm
03:59 AM 45.0°F7.2°C 43.0°F6.1°C 93% 0.4 mph E0.6 kmh E 2.0 mph3.2 kmh 29.83 in1010.2 mb 0.00 in0.0 mm 0.00 in0.0 mm 0.00 in0.0 mm
04:04 AM 45.0°F7.2°C 43.0°F6.1°C 93% Calm Calm 1.1 mph1.8 kmh 29.83 in1010.2 mb 0.00 in0.0 mm 0.00 in0.0 mm 0.00 in0.0 mm
04:09 AM 45.0°F7.2°C 43.0°F6.1°C 93% Calm Calm -- 29.83 in1010.2 mb 0.00 in0.0 mm 0.00 in0.0 mm 0.00 in0.0 mm
04:14 AM 45.0°F7.2°C 43.0°F6.1°C 93% Calm Calm 1.1 mph1.8 kmh 29.83 in1010.2 mb 0.00 in0.0 mm 0.00 in0.0 mm 0.00 in0.0 mm
04:19 AM 44.8°F7.1°C 42.8°F6.0°C 93% Calm Calm -- 29.83 in1010.2 mb 0.00 in0.0 mm 0.00 in0.0 mm 0.00 in0.0 mm
04:24 AM 44.8°F7.1°C 42.6°F5.9°C 92% Calm Calm -- 29.83 in1010.2 mb 0.00 in0.0 mm 0.00 in0.0 mm 0.00 in0.0 mm
04:29 AM 44.8°F7.1°C 42.8°F6.0°C 93% Calm Calm -- 29.83 in1010.2 mb 0.00 in0.0 mm 0.00 in0.0 mm 0.00 in0.0 mm
04:34 AM 44.8°F7.1°C 42.8°F6.0°C 93% Calm Calm -- 29.83 in1010.2 mb 0.00 in0.0 mm 0.00 in0.0 mm 0.00 in0.0 mm
04:39 AM 44.8°F7.1°C 42.8°F6.0°C 93% Calm Calm -- 29.83 in1010.2 mb 0.00 in0.0 mm 0.00 in0.0 mm 0.00 in0.0 mm
04:44 AM 44.8°F7.1°C 42.8°F6.0°C 93% Calm Calm -- 29.83 in1010.2 mb 0.00 in0.0 mm 0.00 in0.0 mm 0.00 in0.0 mm
04:49 AM 44.8°F7.1°C 42.8°F6.0°C 93% Calm Calm -- 29.83 in1010.2 mb 0.00 in0.0 mm 0.00 in0.0 mm 0.00 in0.0 mm
04:54 AM 44.8°F7.1°C 42.8°F6.0°C 93% Calm Calm -- 29.83 in1010.2 mb 0.00 in0.0 mm 0.00 in0.0 mm 0.00 in0.0 mm
04:59 AM 45.0°F7.2°C 43.0°F6.1°C 93% Calm Calm -- 29.83 in1010.2 mb 0.00 in0.0 mm 0.00 in0.0 mm 0.00 in0.0 mm
05:04 AM 45.0°F7.2°C 43.0°F6.1°C 93% Calm Calm -- 29.83 in1010.2 mb 0.00 in0.0 mm 0.00 in0.0 mm 0.00 in0.0 mm
05:09 AM 45.0°F7.2°C 42.8°F6.0°C 92% Calm Calm -- 29.83 in1010.2 mb 0.00 in0.0 mm 0.00 in0.0 mm 0.00 in0.0 mm
05:14 AM 45.0°F7.2°C 42.8°F6.0°C 92% Calm Calm -- 29.83 in1010.2 mb 0.00 in0.0 mm 0.00 in0.0 mm 0.00 in0.0 mm
05:19 AM 45.0°F7.2°C 42.8°F6.0°C 92% Calm Calm -- 29.83 in1010.2 mb 0.00 in0.0 mm 0.00 in0.0 mm 0.00 in0.0 mm
05:24 AM 45.1°F7.3°C 43.0°F6.1°C 92% Calm Calm 1.1 mph1.8 kmh 29.83 in1010.2 mb 0.00 in0.0 mm 0.00 in0.0 mm 0.00 in0.0 mm
05:29 AM 45.1°F7.3°C 43.0°F6.1°C 92% Calm Calm -- 29.82 in1009.8 mb 0.00 in0.0 mm 0.00 in0.0 mm 0.00 in0.0 mm
05:34 AM 45.1°F7.3°C 43.0°F6.1°C 92% Calm Calm -- 29.82 in1009.8 mb 0.00 in0.0 mm 0.00 in0.0 mm 0.00 in0.0 mm
05:39 AM 45.0°F7.2°C 42.8°F6.0°C 92% Calm Calm -- 29.81 in1009.5 mb 0.00 in0.0 mm 0.00 in0.0 mm 0.00 in0.0 mm
05:44 AM 45.0°F7.2°C 42.8°F6.0°C 92% Calm Calm -- 29.82 in1009.8 mb 0.00 in0.0 mm 0.00 in0.0 mm 0.00 in0.0 mm
05:49 AM 45.0°F7.2°C 42.8°F6.0°C 92% Calm Calm -- 29.82 in1009.8 mb 0.00 in0.0 mm 0.00 in0.0 mm 0.00 in0.0 mm
05:54 AM 45.0°F7.2°C 42.8°F6.0°C 92% Calm Calm -- 29.82 in1009.8 mb 0.00 in0.0 mm 0.00 in0.0 mm 0.00 in0.0 mm
05:59 AM 45.0°F7.2°C 42.8°F6.0°C 92% Calm Calm -- 29.82 in1009.8 mb 0.00 in0.0 mm 0.00 in0.0 mm 0.00 in0.0 mm
06:04 AM 45.0°F7.2°C 42.8°F6.0°C 92% Calm Calm -- 29.82 in1009.8 mb 0.00 in0.0 mm 0.00 in0.0 mm 0.00 in0.0 mm
06:09 AM 45.1°F7.3°C 43.0°F6.1°C 92% Calm Calm -- 29.82 in1009.8 mb 0.00 in0.0 mm 0.00 in0.0 mm 0.00 in0.0 mm
06:14 AM 45.1°F7.3°C 43.0°F6.1°C 92% Calm Calm -- 29.83 in1010.2 mb 0.00 in0.0 mm 0.00 in0.0 mm 0.00 in0.0 mm
06:19 AM 45.1°F7.3°C 43.0°F6.1°C 92% Calm Calm -- 29.82 in1009.8 mb 0.00 in0.0 mm 0.00 in0.0 mm 0.00 in0.0 mm
06:24 AM 45.3°F7.4°C 42.8°F6.0°C 91% Calm Calm -- 29.83 in1010.2 mb 0.00 in0.0 mm 0.00 in0.0 mm 0.00 in0.0 mm
06:29 AM 45.3°F7.4°C 42.8°F6.0°C 91% Calm Calm -- 29.83 in1010.2 mb 0.00 in0.0 mm 0.00 in0.0 mm 0.00 in0.0 mm
06:34 AM 45.3°F7.4°C 42.8°F6.0°C 91% Calm Calm -- 29.84 in1010.5 mb 0.00 in0.0 mm 0.00 in0.0 mm 0.00 in0.0 mm
06:39 AM 45.5°F7.5°C 43.0°F6.1°C 91% Calm Calm -- 29.84 in1010.5 mb 0.00 in0.0 mm 0.00 in0.0 mm 0.00 in0.0 mm
06:44 AM 45.5°F7.5°C 43.0°F6.1°C 91% Calm Calm -- 29.85 in1010.8 mb 0.00 in0.0 mm 0.00 in0.0 mm 0.00 in0.0 mm
06:49 AM 45.5°F7.5°C 43.0°F6.1°C 91% Calm Calm -- 29.85 in1010.8 mb 0.00 in0.0 mm 0.00 in0.0 mm 0.00 in0.0 mm
06:54 AM 45.7°F7.6°C 43.2°F6.2°C 91% Calm Calm -- 29.85 in1010.8 mb 0.00 in0.0 mm 0.00 in0.0 mm 0.00 in0.0 mm
06:59 AM 45.9°F7.7°C 43.3°F6.3°C 91% Calm Calm -- 29.86 in1011.2 mb 0.00 in0.0 mm 0.00 in0.0 mm 0.00 in0.0 mm
07:04 AM 46.2°F7.9°C 43.5°F6.4°C 90% 0.4 mph SSW0.6 kmh SSW 1.1 mph1.8 kmh 29.86 in1011.2 mb 0.00 in0.0 mm 0.00 in0.0 mm 0.00 in0.0 mm
07:09 AM 46.4°F8.0°C 43.7°F6.5°C 90% Calm Calm 1.1 mph1.8 kmh 29.85 in1010.8 mb 0.00 in0.0 mm 0.00 in0.0 mm 0.00 in0.0 mm
07:14 AM 46.6°F8.1°C 43.9°F6.6°C 90% Calm Calm 1.1 mph1.8 kmh 29.85 in1010.8 mb 0.00 in0.0 mm 0.00 in0.0 mm 0.00 in0.0 mm
07:19 AM 46.6°F8.1°C 43.5°F6.4°C 89% Calm Calm 1.1 mph1.8 kmh 29.85 in1010.8 mb 0.00 in0.0 mm 0.00 in0.0 mm 0.00 in0.0 mm
07:24 AM 46.6°F8.1°C 43.5°F6.4°C 89% Calm Calm -- 29.85 in1010.8 mb 0.00 in0.0 mm 0.00 in0.0 mm 0.00 in0.0 mm
07:29 AM 46.8°F8.2°C 43.7°F6.5°C 89% Calm Calm -- 29.85 in1010.8 mb 0.00 in0.0 mm 0.00 in0.0 mm 0.00 in0.0 mm
07:34 AM 46.9°F8.3°C 43.9°F6.6°C 89% Calm Calm -- 29.85 in1010.8 mb 0.00 in0.0 mm 0.00 in0.0 mm 0.00 in0.0 mm
07:39 AM 47.1°F8.4°C 44.1°F6.7°C 89% Calm Calm -- 29.85 in1010.8 mb 0.00 in0.0 mm 0.00 in0.0 mm 0.00 in0.0 mm
07:44 AM 47.5°F8.6°C 44.1°F6.7°C 88% Calm Calm -- 29.85 in1010.8 mb 0.00 in0.0 mm 0.00 in0.0 mm 0.00 in0.0 mm
07:49 AM 47.7°F8.7°C 44.2°F6.8°C 88% Calm Calm -- 29.85 in1010.8 mb 0.00 in0.0 mm 0.00 in0.0 mm 0.00 in0.0 mm
07:54 AM 47.8°F8.8°C 44.2°F6.8°C 87% Calm Calm -- 29.85 in1010.8 mb 0.00 in0.0 mm 0.00 in0.0 mm 0.00 in0.0 mm
07:59 AM 48.0°F8.9°C 44.4°F6.9°C 87% Calm Calm 1.1 mph1.8 kmh 29.85 in1010.8 mb 0.00 in0.0 mm 0.00 in0.0 mm 0.00 in0.0 mm
08:04 AM 48.4°F9.1°C 44.4°F6.9°C 86% Calm Calm -- 29.85 in1010.8 mb 0.00 in0.0 mm 0.00 in0.0 mm 0.00 in0.0 mm
08:09 AM 48.6°F9.2°C 44.6°F7.0°C 86% Calm Calm 1.1 mph1.8 kmh 29.84 in1010.5 mb 0.00 in0.0 mm 0.00 in0.0 mm 0.00 in0.0 mm
08:14 AM 48.7°F9.3°C 44.8°F7.1°C 86% Calm Calm -- 29.84 in1010.5 mb 0.00 in0.0 mm 0.00 in0.0 mm 0.00 in0.0 mm
08:19 AM 48.9°F9.4°C 45.0°F7.2°C 86% Calm Calm -- 29.84 in1010.5 mb 0.00 in0.0 mm 0.00 in0.0 mm 0.00 in0.0 mm
08:24 AM 49.3°F9.6°C 45.0°F7.2°C 85% Calm Calm 1.1 mph1.8 kmh 29.85 in1010.8 mb 0.00 in0.0 mm 0.00 in0.0 mm 0.00 in0.0 mm
08:29 AM 49.5°F9.7°C 44.8°F7.1°C 84% Calm Calm 1.1 mph1.8 kmh 29.85 in1010.8 mb 0.00 in0.0 mm 0.00 in0.0 mm 0.00 in0.0 mm
08:34 AM 49.8°F9.9°C 45.1°F7.3°C 84% Calm Calm -- 29.85 in1010.8 mb 0.00 in0.0 mm 0.00 in0.0 mm 0.00 in0.0 mm
08:39 AM 50.2°F10.1°C 45.1°F7.3°C 83% Calm Calm 1.1 mph1.8 kmh 29.85 in1010.8 mb 0.00 in0.0 mm 0.00 in0.0 mm 0.00 in0.0 mm
08:44 AM 50.4°F10.2°C 45.1°F7.3°C 82% 0.2 mph ESE0.3 kmh ESE 1.1 mph1.8 kmh 29.85 in1010.8 mb 0.00 in0.0 mm 0.00 in0.0 mm 0.00 in0.0 mm
08:49 AM 50.7°F10.4°C 45.5°F7.5°C 82% Calm Calm -- 29.85 in1010.8 mb 0.00 in0.0 mm 0.00 in0.0 mm 0.00 in0.0 mm
08:54 AM 50.9°F10.5°C 45.3°F7.4°C 81% Calm Calm 1.1 mph1.8 kmh 29.85 in1010.8 mb 0.00 in0.0 mm 0.00 in0.0 mm 0.00 in0.0 mm
08:59 AM 51.1°F10.6°C 45.1°F7.3°C 80% Calm Calm 2.0 mph3.2 kmh 29.85 in1010.8 mb 0.00 in0.0 mm 0.00 in0.0 mm 0.00 in0.0 mm
09:04 AM 51.3°F10.7°C 45.0°F7.2°C 79% Calm Calm 2.0 mph3.2 kmh 29.85 in1010.8 mb 0.00 in0.0 mm 0.00 in0.0 mm 0.00 in0.0 mm
09:09 AM 51.4°F10.8°C 44.8°F7.1°C 78% Calm Calm 1.1 mph1.8 kmh 29.85 in1010.8 mb 0.00 in0.0 mm 0.00 in0.0 mm 0.00 in0.0 mm
09:14 AM 51.6°F10.9°C 45.0°F7.2°C 78% Calm Calm -- 29.85 in1010.8 mb 0.00 in0.0 mm 0.00 in0.0 mm 0.00 in0.0 mm
09:19 AM 52.2°F11.2°C 45.5°F7.5°C 78% Calm Calm 1.1 mph1.8 kmh 29.86 in1011.2 mb 0.00 in0.0 mm 0.00 in0.0 mm 0.00 in0.0 mm
09:24 AM 52.2°F11.2°C 44.8°F7.1°C 76% Calm Calm -- 29.86 in1011.2 mb 0.00 in0.0 mm 0.00 in0.0 mm 0.00 in0.0 mm
09:29 AM 52.5°F11.4°C 45.1°F7.3°C 76% Calm Calm -- 29.85 in1010.8 mb 0.00 in0.0 mm 0.00 in0.0 mm 0.00 in0.0 mm
09:34 AM 52.9°F11.6°C 45.5°F7.5°C 76% Calm Calm -- 29.85 in1010.8 mb 0.00 in0.0 mm 0.00 in0.0 mm 0.00 in0.0 mm
09:39 AM 52.9°F11.6°C 44.8°F7.1°C 74% 1.1 mph W1.8 kmh W 3.1 mph5.0 kmh 29.85 in1010.8 mb 0.00 in0.0 mm 0.00 in0.0 mm 0.00 in0.0 mm
09:44 AM 52.9°F11.6°C 44.8°F7.1°C 74% 0.7 mph NNW1.1 kmh NNW 3.1 mph5.0 kmh 29.86 in1011.2 mb 0.00 in0.0 mm 0.00 in0.0 mm 0.00 in0.0 mm
09:49 AM 52.9°F11.6°C 45.1°F7.3°C 75% 1.3 mph NW2.1 kmh NW 2.0 mph3.2 kmh 29.86 in1011.2 mb 0.00 in0.0 mm 0.00 in0.0 mm 0.00 in0.0 mm
09:54 AM 52.7°F11.5°C 45.0°F7.2°C 75% 0.4 mph NW0.6 kmh NW 2.0 mph3.2 kmh 29.86 in1011.2 mb 0.00 in0.0 mm 0.00 in0.0 mm 0.00 in0.0 mm
09:59 AM 52.7°F11.5°C 45.3°F7.4°C 76% 1.6 mph WNW2.6 kmh WNW 2.0 mph3.2 kmh 29.86 in1011.2 mb 0.00 in0.0 mm 0.00 in0.0 mm 0.00 in0.0 mm
10:04 AM 52.9°F11.6°C 45.9°F7.7°C 77% 0.4 mph SW0.6 kmh SW 2.0 mph3.2 kmh 29.87 in1011.5 mb 0.00 in0.0 mm 0.00 in0.0 mm 0.00 in0.0 mm
10:09 AM 52.7°F11.5°C 45.3°F7.4°C 76% 0.2 mph SW0.3 kmh SW 2.0 mph3.2 kmh 29.86 in1011.2 mb 0.00 in0.0 mm 0.00 in0.0 mm 0.00 in0.0 mm
10:14 AM 52.7°F11.5°C 45.3°F7.4°C 76% Calm Calm 1.1 mph1.8 kmh 29.86 in1011.2 mb 0.00 in0.0 mm 0.00 in0.0 mm 0.00 in0.0 mm
10:19 AM 52.7°F11.5°C 45.3°F7.4°C 76% Calm Calm 1.1 mph1.8 kmh 29.87 in1011.5 mb 0.00 in0.0 mm 0.00 in0.0 mm 0.00 in0.0 mm
10:24 AM 52.9°F11.6°C 45.5°F7.5°C 76% Calm Calm -- 29.86 in1011.2 mb 0.00 in0.0 mm 0.00 in0.0 mm 0.00 in0.0 mm
10:29 AM 53.2°F11.8°C 46.2°F7.9°C 77% 0.2 mph WSW0.3 kmh WSW 1.1 mph1.8 kmh 29.86 in1011.2 mb 0.00 in0.0 mm 0.00 in0.0 mm 0.00 in0.0 mm
10:34 AM 53.1°F11.7°C 45.7°F7.6°C 76% 2.0 mph SW3.2 kmh SW 3.1 mph5.0 kmh 29.86 in1011.2 mb 0.00 in0.0 mm 0.00 in0.0 mm 0.00 in0.0 mm
10:39 AM 53.2°F11.8°C 46.2°F7.9°C 77% 1.1 mph SW1.8 kmh SW 4.3 mph6.9 kmh 29.85 in1010.8 mb 0.00 in0.0 mm 0.00 in0.0 mm 0.00 in0.0 mm
10:44 AM 53.4°F11.9°C 46.0°F7.8°C 76% 2.9 mph NNW4.7 kmh NNW 5.4 mph8.7 kmh 29.85 in1010.8 mb 0.00 in0.0 mm 0.00 in0.0 mm 0.00 in0.0 mm
10:49 AM 53.4°F11.9°C 45.7°F7.6°C 75% 1.1 mph W1.8 kmh W 4.3 mph6.9 kmh 29.85 in1010.8 mb 0.00 in0.0 mm 0.00 in0.0 mm 0.00 in0.0 mm
10:54 AM 54.1°F12.3°C 47.1°F8.4°C 77% 1.8 mph NW2.9 kmh NW 4.3 mph6.9 kmh 29.85 in1010.8 mb 0.00 in0.0 mm 0.00 in0.0 mm 0.00 in0.0 mm
10:59 AM 54.5°F12.5°C 47.1°F8.4°C 76% 3.1 mph WSW5.0 kmh WSW 5.4 mph8.7 kmh 29.84 in1010.5 mb 0.00 in0.0 mm 0.00 in0.0 mm 0.00 in0.0 mm
11:04 AM 54.7°F12.6°C 46.9°F8.3°C 75% 1.8 mph W2.9 kmh W 6.3 mph10.1 kmh 29.83 in1010.2 mb 0.00 in0.0 mm 0.00 in0.0 mm 0.00 in0.0 mm
11:09 AM 54.9°F12.7°C 46.8°F8.2°C 74% 0.4 mph SSW0.6 kmh SSW 3.1 mph5.0 kmh 29.84 in1010.5 mb 0.00 in0.0 mm 0.00 in0.0 mm 0.00 in0.0 mm
11:14 AM 55.2°F12.9°C 47.1°F8.4°C 74% 0.7 mph SW1.1 kmh SW 2.0 mph3.2 kmh 29.85 in1010.8 mb 0.00 in0.0 mm 0.00 in0.0 mm 0.00 in0.0 mm
11:19 AM 55.6°F13.1°C 47.1°F8.4°C 73% 1.1 mph SW1.8 kmh SW 3.1 mph5.0 kmh 29.84 in1010.5 mb 0.00 in0.0 mm 0.00 in0.0 mm 0.00 in0.0 mm
11:24 AM 55.6°F13.1°C 46.8°F8.2°C 72% Calm Calm 3.1 mph5.0 kmh 29.84 in1010.5 mb 0.00 in0.0 mm 0.00 in0.0 mm 0.00 in0.0 mm
11:29 AM 55.8°F13.2°C 46.6°F8.1°C 71% 0.4 mph W0.6 kmh W 2.0 mph3.2 kmh 29.83 in1010.2 mb 0.00 in0.0 mm 0.00 in0.0 mm 0.00 in0.0 mm
11:34 AM 55.8°F13.2°C 46.6°F8.1°C 71% 1.6 mph N2.6 kmh N 3.1 mph5.0 kmh 29.83 in1010.2 mb 0.00 in0.0 mm 0.00 in0.0 mm 0.00 in0.0 mm
11:39 AM 55.9°F13.3°C 47.1°F8.4°C 72% 0.4 mph NW0.6 kmh NW 3.1 mph5.0 kmh 29.82 in1009.8 mb 0.00 in0.0 mm 0.00 in0.0 mm 0.00 in0.0 mm
11:44 AM 55.9°F13.3°C 46.2°F7.9°C 70% 2.7 mph NNW4.3 kmh NNW 4.3 mph6.9 kmh 29.82 in1009.8 mb 0.00 in0.0 mm 0.00 in0.0 mm 0.00 in0.0 mm
11:49 AM 56.1°F13.4°C 46.8°F8.2°C 71% 0.9 mph W1.4 kmh W 4.3 mph6.9 kmh 29.82 in1009.8 mb 0.00 in0.0 mm 0.00 in0.0 mm 0.00 in0.0 mm
11:54 AM 56.1°F13.4°C 46.4°F8.0°C 70% 2.2 mph NW3.5 kmh NW 5.4 mph8.7 kmh 29.82 in1009.8 mb 0.00 in0.0 mm 0.00 in0.0 mm 0.00 in0.0 mm
11:59 AM 56.3°F13.5°C 46.2°F7.9°C 69% 2.0 mph SW3.2 kmh SW 4.3 mph6.9 kmh 29.82 in1009.8 mb 0.00 in0.0 mm 0.00 in0.0 mm 0.00 in0.0 mm
12:04 PM 56.3°F13.5°C 46.9°F8.3°C 71% 1.6 mph NE2.6 kmh NE 4.3 mph6.9 kmh 29.81 in1009.5 mb 0.00 in0.0 mm 0.00 in0.0 mm 0.00 in0.0 mm
12:09 PM 56.5°F13.6°C 47.1°F8.4°C 71% 0.2 mph WSW0.3 kmh WSW 2.0 mph3.2 kmh 29.81 in1009.5 mb 0.00 in0.0 mm 0.00 in0.0 mm 0.00 in0.0 mm
12:14 PM 56.8°F13.8°C 47.5°F8.6°C 71% 0.4 mph SW0.6 kmh SW 2.0 mph3.2 kmh 29.81 in1009.5 mb 0.00 in0.0 mm 0.00 in0.0 mm 0.00 in0.0 mm
12:19 PM 56.8°F13.8°C 46.8°F8.2°C 69% 1.3 mph SW2.1 kmh SW 5.4 mph8.7 kmh 29.81 in1009.5 mb 0.00 in0.0 mm 0.00 in0.0 mm 0.00 in0.0 mm
12:24 PM 57.0°F13.9°C 46.9°F8.3°C 69% 2.2 mph W3.5 kmh W 4.3 mph6.9 kmh 29.79 in1008.8 mb 0.00 in0.0 mm 0.00 in0.0 mm 0.00 in0.0 mm
12:29 PM 57.6°F14.2°C 47.8°F8.8°C 70% 0.4 mph N0.6 kmh N 3.1 mph5.0 kmh 29.78 in1008.5 mb 0.00 in0.0 mm 0.00 in0.0 mm 0.00 in0.0 mm
12:34 PM 58.1°F14.5°C 47.7°F8.7°C 68% 1.1 mph NW1.8 kmh NW 4.3 mph6.9 kmh 29.78 in1008.5 mb 0.00 in0.0 mm 0.00 in0.0 mm 0.00 in0.0 mm
12:39 PM 58.6°F14.8°C 47.3°F8.5°C 66% 1.3 mph NW2.1 kmh NW 4.3 mph6.9 kmh 29.78 in1008.5 mb 0.00 in0.0 mm 0.00 in0.0 mm 0.00 in0.0 mm
12:44 PM 58.6°F14.8°C 46.9°F8.3°C 65% 0.2 mph WSW0.3 kmh WSW 6.3 mph10.1 kmh 29.78 in1008.5 mb 0.00 in0.0 mm 0.00 in0.0 mm 0.00 in0.0 mm
12:49 PM 58.8°F14.9°C 46.2°F7.9°C 63% 2.9 mph NW4.7 kmh NW 5.4 mph8.7 kmh 29.78 in1008.5 mb 0.00 in0.0 mm 0.00 in0.0 mm 0.00 in0.0 mm
12:54 PM 58.8°F14.9°C 46.2°F7.9°C 63% Calm Calm 4.3 mph6.9 kmh 29.78 in1008.5 mb 0.00 in0.0 mm 0.00 in0.0 mm 0.00 in0.0 mm
12:59 PM 59.0°F15.0°C 46.0°F7.8°C 62% Calm Calm 1.1 mph1.8 kmh 29.78 in1008.5 mb 0.00 in0.0 mm 0.00 in0.0 mm 0.00 in0.0 mm
01:04 PM 59.0°F15.0°C 46.0°F7.8°C 62% 0.4 mph W0.6 kmh W 2.0 mph3.2 kmh 29.78 in1008.5 mb 0.00 in0.0 mm 0.00 in0.0 mm 0.00 in0.0 mm
01:09 PM 59.2°F15.1°C 46.9°F8.3°C 64% 0.9 mph N1.4 kmh N 2.0 mph3.2 kmh 29.77 in1008.1 mb 0.00 in0.0 mm 0.00 in0.0 mm 0.00 in0.0 mm
01:14 PM 58.8°F14.9°C 46.6°F8.1°C 64% 5.1 mph NW8.2 kmh NW 7.4 mph11.9 kmh 29.76 in1007.8 mb 0.00 in0.0 mm 0.00 in0.0 mm 0.00 in0.0 mm
01:19 PM 58.6°F14.8°C 46.0°F7.8°C 63% 5.6 mph NW9.0 kmh NW 8.5 mph13.7 kmh 29.75 in1007.5 mb 0.00 in0.0 mm 0.00 in0.0 mm 0.00 in0.0 mm
01:24 PM 58.5°F14.7°C 46.8°F8.2°C 65% 4.3 mph WNW6.9 kmh WNW 11.6 mph18.7 kmh 29.74 in1007.1 mb 0.00 in0.0 mm 0.00 in0.0 mm 0.00 in0.0 mm
01:29 PM 58.3°F14.6°C 46.9°F8.3°C 66% 3.6 mph WSW5.8 kmh WSW 9.6 mph15.4 kmh 29.74 in1007.1 mb 0.00 in0.0 mm 0.00 in0.0 mm 0.00 in0.0 mm
01:34 PM 58.1°F14.5°C 46.0°F7.8°C 64% 4.0 mph NW6.4 kmh NW 9.6 mph15.4 kmh 29.74 in1007.1 mb 0.00 in0.0 mm 0.00 in0.0 mm 0.00 in0.0 mm
01:39 PM 57.9°F14.4°C 46.2°F7.9°C 65% 0.2 mph NW0.3 kmh NW 7.4 mph11.9 kmh 29.74 in1007.1 mb 0.00 in0.0 mm 0.00 in0.0 mm 0.00 in0.0 mm
01:44 PM 57.9°F14.4°C 44.6°F7.0°C 61% 1.3 mph E2.1 kmh E 4.3 mph6.9 kmh 29.75 in1007.5 mb 0.00 in0.0 mm 0.00 in0.0 mm 0.00 in0.0 mm
01:49 PM 57.9°F14.4°C 45.0°F7.2°C 62% 0.4 mph NE0.6 kmh NE 3.1 mph5.0 kmh 29.75 in1007.5 mb 0.00 in0.0 mm 0.00 in0.0 mm 0.00 in0.0 mm
01:54 PM 57.9°F14.4°C 44.6°F7.0°C 61% 0.9 mph NW1.4 kmh NW 4.3 mph6.9 kmh 29.75 in1007.5 mb 0.00 in0.0 mm 0.00 in0.0 mm 0.00 in0.0 mm
01:59 PM 57.9°F14.4°C 45.0°F7.2°C 62% 2.5 mph NNE4.0 kmh NNE 4.3 mph6.9 kmh 29.75 in1007.5 mb 0.00 in0.0 mm 0.00 in0.0 mm 0.00 in0.0 mm
02:04 PM 57.9°F14.4°C 45.0°F7.2°C 62% 1.6 mph NW2.6 kmh NW 4.3 mph6.9 kmh 29.75 in1007.5 mb 0.00 in0.0 mm 0.00 in0.0 mm 0.00 in0.0 mm
02:09 PM 57.9°F14.4°C 45.0°F7.2°C 62% 2.0 mph NW3.2 kmh NW 6.3 mph10.1 kmh 29.74 in1007.1 mb 0.00 in0.0 mm 0.00 in0.0 mm 0.00 in0.0 mm
02:14 PM 57.7°F14.3°C 43.0°F6.1°C 58% 3.1 mph WNW5.0 kmh WNW 7.4 mph11.9 kmh 29.74 in1007.1 mb 0.00 in0.0 mm 0.00 in0.0 mm 0.00 in0.0 mm
02:19 PM 57.9°F14.4°C 43.7°F6.5°C 59% 1.3 mph NNW2.1 kmh NNW 4.3 mph6.9 kmh 29.75 in1007.5 mb 0.00 in0.0 mm 0.00 in0.0 mm 0.00 in0.0 mm
02:24 PM 57.7°F14.3°C 43.5°F6.4°C 59% 1.8 mph NW2.9 kmh NW 5.4 mph8.7 kmh 29.74 in1007.1 mb 0.00 in0.0 mm 0.00 in0.0 mm 0.00 in0.0 mm
02:29 PM 57.7°F14.3°C 43.0°F6.1°C 58% 3.1 mph WNW5.0 kmh WNW 5.4 mph8.7 kmh 29.74 in1007.1 mb 0.00 in0.0 mm 0.00 in0.0 mm 0.00 in0.0 mm
02:34 PM 57.6°F14.2°C 43.0°F6.1°C 58% 1.1 mph WSW1.8 kmh WSW 5.4 mph8.7 kmh 29.75 in1007.5 mb 0.00 in0.0 mm 0.00 in0.0 mm 0.00 in0.0 mm
02:39 PM 57.7°F14.3°C 43.5°F6.4°C 59% 2.2 mph WSW3.5 kmh WSW 4.3 mph6.9 kmh 29.75 in1007.5 mb 0.00 in0.0 mm 0.00 in0.0 mm 0.00 in0.0 mm
02:44 PM 57.6°F14.2°C 43.3°F6.3°C 59% 3.6 mph W5.8 kmh W 6.3 mph10.1 kmh 29.75 in1007.5 mb 0.00 in0.0 mm 0.00 in0.0 mm 0.00 in0.0 mm
02:49 PM 57.4°F14.1°C 43.7°F6.5°C 60% 2.9 mph W4.7 kmh W 6.3 mph10.1 kmh 29.75 in1007.5 mb 0.00 in0.0 mm 0.00 in0.0 mm 0.00 in0.0 mm
02:54 PM 57.4°F14.1°C 43.7°F6.5°C 60% 2.7 mph WNW4.3 kmh WNW 6.3 mph10.1 kmh 29.75 in1007.5 mb 0.00 in0.0 mm 0.00 in0.0 mm 0.00 in0.0 mm
02:59 PM 57.0°F13.9°C 43.7°F6.5°C 61% 2.7 mph WNW4.3 kmh WNW 6.3 mph10.1 kmh 29.75 in1007.5 mb 0.00 in0.0 mm 0.00 in0.0 mm 0.00 in0.0 mm
03:04 PM 57.2°F14.0°C 45.1°F7.3°C 64% 1.6 mph WNW2.6 kmh WNW 4.3 mph6.9 kmh 29.75 in1007.5 mb 0.00 in0.0 mm 0.00 in0.0 mm 0.00 in0.0 mm
03:09 PM 57.0°F13.9°C 45.9°F7.7°C 66% 0.9 mph SW1.4 kmh SW 4.3 mph6.9 kmh 29.75 in1007.5 mb 0.00 in0.0 mm 0.00 in0.0 mm 0.00 in0.0 mm
03:14 PM 56.7°F13.7°C 46.2°F7.9°C 68% 2.5 mph WSW4.0 kmh WSW 5.4 mph8.7 kmh 29.75 in1007.5 mb 0.00 in0.0 mm 0.00 in0.0 mm 0.00 in0.0 mm
03:19 PM 56.3°F13.5°C 46.6°F8.1°C 70% 0.7 mph WNW1.1 kmh WNW 5.4 mph8.7 kmh 29.75 in1007.5 mb 0.00 in0.0 mm 0.00 in0.0 mm 0.00 in0.0 mm
03:24 PM 55.9°F13.3°C 46.2°F7.9°C 70% 2.0 mph WSW3.2 kmh WSW 5.4 mph8.7 kmh 29.75 in1007.5 mb 0.00 in0.0 mm 0.00 in0.0 mm 0.00 in0.0 mm
03:29 PM 55.8°F13.2°C 46.6°F8.1°C 71% 0.4 mph NW0.6 kmh NW 3.1 mph5.0 kmh 29.75 in1007.5 mb 0.00 in0.0 mm 0.00 in0.0 mm 0.00 in0.0 mm
03:34 PM 55.6°F13.1°C 47.1°F8.4°C 73% Calm Calm 3.1 mph5.0 kmh 29.75 in1007.5 mb 0.00 in0.0 mm 0.00 in0.0 mm 0.00 in0.0 mm
03:39 PM 55.4°F13.0°C 47.7°F8.7°C 75% Calm Calm -- 29.75 in1007.5 mb 0.00 in0.0 mm 0.00 in0.0 mm 0.00 in0.0 mm
03:44 PM 55.0°F12.8°C 48.0°F8.9°C 77% Calm Calm 1.1 mph1.8 kmh 29.75 in1007.5 mb 0.00 in0.0 mm 0.00 in0.0 mm 0.00 in0.0 mm
03:49 PM 54.7°F12.6°C 48.0°F8.9°C 78% 1.6 mph WNW2.6 kmh WNW 4.3 mph6.9 kmh 29.75 in1007.5 mb 0.01 in0.3 mm 0.12 in3.0 mm 0.01 in0.3 mm
03:54 PM 54.3°F12.4°C 48.2°F9.0°C 80% 0.9 mph WNW1.4 kmh WNW 4.3 mph6.9 kmh 29.75 in1007.5 mb 0.01 in0.3 mm 0.00 in0.0 mm 0.01 in0.3 mm
03:59 PM 54.1°F12.3°C 48.7°F9.3°C 82% 1.8 mph NW2.9 kmh NW 4.3 mph6.9 kmh 29.75 in1007.5 mb 0.01 in0.3 mm 0.00 in0.0 mm 0.01 in0.3 mm
04:04 PM 54.0°F12.2°C 48.9°F9.4°C 83% 1.8 mph WNW2.9 kmh WNW 5.4 mph8.7 kmh 29.75 in1007.5 mb 0.02 in0.5 mm 0.01 in0.3 mm 0.02 in0.5 mm
04:09 PM 53.4°F11.9°C 48.7°F9.3°C 84% 3.6 mph NW5.8 kmh NW 7.4 mph11.9 kmh 29.74 in1007.1 mb 0.03 in0.8 mm 0.12 in3.0 mm 0.03 in0.8 mm
04:14 PM 53.2°F11.8°C 48.9°F9.4°C 85% 3.1 mph WNW5.0 kmh WNW 6.3 mph10.1 kmh 29.75 in1007.5 mb 0.03 in0.8 mm 0.00 in0.0 mm 0.03 in0.8 mm
04:19 PM 53.1°F11.7°C 48.9°F9.4°C 86% 2.0 mph NNW3.2 kmh NNW 5.4 mph8.7 kmh 29.75 in1007.5 mb 0.04 in1.0 mm 0.12 in3.0 mm 0.04 in1.0 mm
04:24 PM 52.9°F11.6°C 48.7°F9.3°C 86% 0.7 mph NW1.1 kmh NW 5.4 mph8.7 kmh 29.74 in1007.1 mb 0.04 in1.0 mm 0.00 in0.0 mm 0.04 in1.0 mm
04:29 PM 52.9°F11.6°C 49.1°F9.5°C 87% 0.9 mph NW1.4 kmh NW 4.3 mph6.9 kmh 29.74 in1007.1 mb 0.04 in1.0 mm 0.00 in0.0 mm 0.04 in1.0 mm
04:34 PM 52.9°F11.6°C 49.5°F9.7°C 88% 0.9 mph NW1.4 kmh NW 3.1 mph5.0 kmh 29.74 in1007.1 mb 0.04 in1.0 mm 0.00 in0.0 mm 0.04 in1.0 mm
04:39 PM 52.9°F11.6°C 49.5°F9.7°C 88% Calm Calm -- 29.74 in1007.1 mb 0.05 in1.3 mm 0.12 in3.0 mm 0.05 in1.3 mm
04:44 PM 52.9°F11.6°C 49.5°F9.7°C 88% 0.7 mph NNW1.1 kmh NNW 5.4 mph8.7 kmh 29.75 in1007.5 mb 0.05 in1.3 mm 0.00 in0.0 mm 0.05 in1.3 mm
04:49 PM 52.9°F11.6°C 49.6°F9.8°C 89% 2.0 mph NW3.2 kmh NW 5.4 mph8.7 kmh 29.74 in1007.1 mb 0.04 in1.0 mm 0.00 in0.0 mm 0.05 in1.3 mm
04:54 PM 52.9°F11.6°C 50.0°F10.0°C 90% 2.5 mph NW4.0 kmh NW 4.3 mph6.9 kmh 29.74 in1007.1 mb 0.04 in1.0 mm 0.00 in0.0 mm 0.05 in1.3 mm
04:59 PM 52.9°F11.6°C 50.0°F10.0°C 90% 2.5 mph W4.0 kmh W 5.4 mph8.7 kmh 29.73 in1006.8 mb 0.04 in1.0 mm 0.00 in0.0 mm 0.05 in1.3 mm
05:04 PM 52.9°F11.6°C 50.4°F10.2°C 91% 2.5 mph WNW4.0 kmh WNW 4.3 mph6.9 kmh 29.73 in1006.8 mb 0.04 in1.0 mm 0.00 in0.0 mm 0.06 in1.5 mm
05:09 PM 52.9°F11.6°C 50.4°F10.2°C 91% 2.9 mph NW4.7 kmh NW 6.3 mph10.1 kmh 29.73 in1006.8 mb 0.03 in0.8 mm 0.00 in0.0 mm 0.06 in1.5 mm
05:14 PM 52.9°F11.6°C 50.4°F10.2°C 91% 2.5 mph WNW4.0 kmh WNW 5.4 mph8.7 kmh 29.73 in1006.8 mb 0.03 in0.8 mm 0.00 in0.0 mm 0.06 in1.5 mm
05:19 PM 52.7°F11.5°C 50.2°F10.1°C 91% 2.9 mph NW4.7 kmh NW 6.3 mph10.1 kmh 29.73 in1006.8 mb 0.02 in0.5 mm 0.00 in0.0 mm 0.06 in1.5 mm
05:24 PM 52.7°F11.5°C 50.2°F10.1°C 91% 2.7 mph NW4.3 kmh NW 6.3 mph10.1 kmh 29.73 in1006.8 mb 0.02 in0.5 mm 0.00 in0.0 mm 0.06 in1.5 mm
05:29 PM 52.5°F11.4°C 50.0°F10.0°C 91% 2.9 mph NE4.7 kmh NE 6.3 mph10.1 kmh 29.73 in1006.8 mb 0.02 in0.5 mm 0.00 in0.0 mm 0.06 in1.5 mm
05:34 PM 52.5°F11.4°C 50.0°F10.0°C 91% 1.8 mph NNW2.9 kmh NNW 5.4 mph8.7 kmh 29.74 in1007.1 mb 0.02 in0.5 mm 0.00 in0.0 mm 0.06 in1.5 mm
05:39 PM 52.5°F11.4°C 50.0°F10.0°C 91% 1.1 mph N1.8 kmh N 3.1 mph5.0 kmh 29.74 in1007.1 mb 0.01 in0.3 mm 0.00 in0.0 mm 0.06 in1.5 mm
05:44 PM 52.3°F11.3°C 49.8°F9.9°C 91% 1.3 mph WNW2.1 kmh WNW 3.1 mph5.0 kmh 29.74 in1007.1 mb 0.01 in0.3 mm 0.00 in0.0 mm 0.06 in1.5 mm
05:49 PM 52.3°F11.3°C 49.8°F9.9°C 91% Calm Calm 3.1 mph5.0 kmh 29.74 in1007.1 mb 0.01 in0.3 mm 0.00 in0.0 mm 0.06 in1.5 mm
05:54 PM 52.2°F11.2°C 49.6°F9.8°C 91% Calm Calm 1.1 mph1.8 kmh 29.74 in1007.1 mb 0.01 in0.3 mm 0.00 in0.0 mm 0.06 in1.5 mm
05:59 PM 52.2°F11.2°C 49.6°F9.8°C 91% Calm Calm -- 29.74 in1007.1 mb 0.01 in0.3 mm 0.00 in0.0 mm 0.06 in1.5 mm
06:04 PM 52.2°F11.2°C 49.6°F9.8°C 91% Calm Calm -- 29.74 in1007.1 mb 0.00 in0.0 mm 0.00 in0.0 mm 0.06 in1.5 mm
06:09 PM 52.2°F11.2°C 49.8°F9.9°C 92% Calm Calm -- 29.75 in1007.5 mb 0.00 in0.0 mm 0.00 in0.0 mm 0.06 in1.5 mm
06:14 PM 52.2°F11.2°C 49.8°F9.9°C 92% Calm Calm 1.1 mph1.8 kmh 29.75 in1007.5 mb 0.00 in0.0 mm 0.00 in0.0 mm 0.06 in1.5 mm
06:19 PM 52.0°F11.1°C 49.6°F9.8°C 92% Calm Calm 1.1 mph1.8 kmh 29.75 in1007.5 mb 0.00 in0.0 mm 0.00 in0.0 mm 0.06 in1.5 mm
06:24 PM 52.0°F11.1°C 49.6°F9.8°C 92% 0.2 mph N0.3 kmh N 1.1 mph1.8 kmh 29.75 in1007.5 mb 0.00 in0.0 mm 0.00 in0.0 mm 0.06 in1.5 mm
06:29 PM 52.0°F11.1°C 49.6°F9.8°C 92% Calm Calm 1.1 mph1.8 kmh 29.75 in1007.5 mb 0.00 in0.0 mm 0.00 in0.0 mm 0.06 in1.5 mm
06:34 PM 51.8°F11.0°C 49.6°F9.8°C 92% Calm Calm -- 29.74 in1007.1 mb 0.00 in0.0 mm 0.00 in0.0 mm 0.06 in1.5 mm
06:39 PM 51.8°F11.0°C 49.6°F9.8°C 92% Calm Calm 1.1 mph1.8 kmh 29.73 in1006.8 mb 0.00 in0.0 mm 0.00 in0.0 mm 0.06 in1.5 mm
06:44 PM 52.0°F11.1°C 49.6°F9.8°C 92% Calm Calm 1.1 mph1.8 kmh 29.73 in1006.8 mb 0.00 in0.0 mm 0.00 in0.0 mm 0.06 in1.5 mm
06:49 PM 52.0°F11.1°C 49.6°F9.8°C 92% Calm Calm -- 29.73 in1006.8 mb 0.00 in0.0 mm 0.00 in0.0 mm 0.06 in1.5 mm
06:54 PM 52.0°F11.1°C 49.6°F9.8°C 92% 0.2 mph N0.3 kmh N 1.1 mph1.8 kmh 29.72 in1006.4 mb 0.00 in0.0 mm 0.00 in0.0 mm 0.06 in1.5 mm
06:59 PM 52.0°F11.1°C 49.6°F9.8°C 92% 0.2 mph NW0.3 kmh NW 2.0 mph3.2 kmh 29.73 in1006.8 mb 0.00 in0.0 mm 0.00 in0.0 mm 0.06 in1.5 mm
07:04 PM 52.0°F11.1°C 49.6°F9.8°C 92% Calm Calm 2.0 mph3.2 kmh 29.73 in1006.8 mb 0.00 in0.0 mm 0.00 in0.0 mm 0.06 in1.5 mm
07:09 PM 51.8°F11.0°C 49.6°F9.8°C 92% 0.2 mph NW0.3 kmh NW 1.1 mph1.8 kmh 29.73 in1006.8 mb 0.00 in0.0 mm 0.00 in0.0 mm 0.06 in1.5 mm
07:14 PM 51.8°F11.0°C 49.6°F9.8°C 92% 0.7 mph NW1.1 kmh NW 2.0 mph3.2 kmh 29.72 in1006.4 mb 0.01 in0.3 mm 0.12 in3.0 mm 0.07 in1.8 mm
07:19 PM 51.6°F10.9°C 49.5°F9.7°C 92% 0.4 mph NW0.6 kmh NW 2.0 mph3.2 kmh 29.72 in1006.4 mb 0.01 in0.3 mm 0.00 in0.0 mm 0.07 in1.8 mm
07:24 PM 51.6°F10.9°C 49.5°F9.7°C 92% Calm Calm 3.1 mph5.0 kmh 29.73 in1006.8 mb 0.01 in0.3 mm 0.00 in0.0 mm 0.07 in1.8 mm
07:29 PM 51.6°F10.9°C 49.5°F9.7°C 92% 1.1 mph WNW1.8 kmh WNW 3.1 mph5.0 kmh 29.72 in1006.4 mb 0.01 in0.3 mm 0.00 in0.0 mm 0.07 in1.8 mm
07:34 PM 51.6°F10.9°C 49.5°F9.7°C 92% 0.9 mph NW1.4 kmh NW 3.1 mph5.0 kmh 29.73 in1006.8 mb 0.01 in0.3 mm 0.00 in0.0 mm 0.07 in1.8 mm
07:39 PM 51.8°F11.0°C 49.6°F9.8°C 92% 0.2 mph NW0.3 kmh NW 3.1 mph5.0 kmh 29.72 in1006.4 mb 0.01 in0.3 mm 0.00 in0.0 mm 0.07 in1.8 mm
07:44 PM 51.6°F10.9°C 49.5°F9.7°C 92% Calm Calm 1.1 mph1.8 kmh 29.73 in1006.8 mb 0.01 in0.3 mm 0.00 in0.0 mm 0.07 in1.8 mm
07:49 PM 51.6°F10.9°C 49.5°F9.7°C 92% Calm Calm -- 29.73 in1006.8 mb 0.01 in0.3 mm 0.00 in0.0 mm 0.07 in1.8 mm
07:54 PM 51.6°F10.9°C 49.5°F9.7°C 92% Calm Calm -- 29.73 in1006.8 mb 0.01 in0.3 mm 0.00 in0.0 mm 0.07 in1.8 mm
07:59 PM 51.6°F10.9°C 49.5°F9.7°C 92% Calm Calm -- 29.74 in1007.1 mb 0.01 in0.3 mm 0.00 in0.0 mm 0.07 in1.8 mm
08:04 PM 51.6°F10.9°C 49.5°F9.7°C 92% Calm Calm -- 29.74 in1007.1 mb 0.01 in0.3 mm 0.00 in0.0 mm 0.07 in1.8 mm
08:09 PM 51.4°F10.8°C 49.3°F9.6°C 92% Calm Calm -- 29.74 in1007.1 mb 0.01 in0.3 mm 0.00 in0.0 mm 0.07 in1.8 mm
08:14 PM 51.4°F10.8°C 49.3°F9.6°C 92% Calm Calm -- 29.74 in1007.1 mb 0.00 in0.0 mm 0.00 in0.0 mm 0.07 in1.8 mm
08:19 PM 51.3°F10.7°C 49.1°F9.5°C 92% Calm Calm -- 29.74 in1007.1 mb 0.00 in0.0 mm 0.00 in0.0 mm 0.07 in1.8 mm
08:24 PM 51.3°F10.7°C 49.3°F9.6°C 93% Calm Calm -- 29.75 in1007.5 mb 0.00 in0.0 mm 0.00 in0.0 mm 0.07 in1.8 mm
08:29 PM 51.4°F10.8°C 49.5°F9.7°C 93% Calm Calm -- 29.74 in1007.1 mb 0.00 in0.0 mm 0.00 in0.0 mm 0.07 in1.8 mm
08:34 PM 51.4°F10.8°C 49.5°F9.7°C 93% Calm Calm -- 29.74 in1007.1 mb 0.00 in0.0 mm 0.00 in0.0 mm 0.07 in1.8 mm
08:39 PM 51.4°F10.8°C 49.5°F9.7°C 93% Calm Calm -- 29.74 in1007.1 mb 0.01 in0.3 mm 0.12 in3.0 mm 0.08 in2.0 mm
08:44 PM 51.4°F10.8°C 49.5°F9.7°C 93% Calm Calm -- 29.74 in1007.1 mb 0.01 in0.3 mm 0.00 in0.0 mm 0.08 in2.0 mm
08:49 PM 51.4°F10.8°C 49.5°F9.7°C 93% Calm Calm -- 29.74 in1007.1 mb 0.01 in0.3 mm 0.00 in0.0 mm 0.08 in2.0 mm
08:54 PM 51.4°F10.8°C 49.5°F9.7°C 93% Calm Calm -- 29.75 in1007.5 mb 0.02 in0.5 mm 0.12 in3.0 mm 0.09 in2.3 mm
08:59 PM 51.4°F10.8°C 49.5°F9.7°C 93% Calm Calm -- 29.75 in1007.5 mb 0.02 in0.5 mm 0.00 in0.0 mm 0.09 in2.3 mm
09:04 PM 51.4°F10.8°C 49.5°F9.7°C 93% Calm Calm -- 29.74 in1007.1 mb 0.03 in0.8 mm 0.01 in0.3 mm 0.10 in2.5 mm
09:09 PM 51.4°F10.8°C 49.5°F9.7°C 93% Calm Calm -- 29.74 in1007.1 mb 0.03 in0.8 mm 0.00 in0.0 mm 0.10 in2.5 mm
09:14 PM 51.4°F10.8°C 49.5°F9.7°C 93% Calm Calm -- 29.74 in1007.1 mb 0.03 in0.8 mm 0.00 in0.0 mm 0.10 in2.5 mm
09:19 PM 51.4°F10.8°C 49.5°F9.7°C 93% Calm Calm -- 29.74 in1007.1 mb 0.04 in1.0 mm 0.12 in3.0 mm 0.11 in2.8 mm
09:24 PM 51.4°F10.8°C 49.5°F9.7°C 93% Calm Calm -- 29.74 in1007.1 mb 0.04 in1.0 mm 0.00 in0.0 mm 0.11 in2.8 mm
09:29 PM 51.4°F10.8°C 49.5°F9.7°C 93% Calm Calm -- 29.74 in1007.1 mb 0.05 in1.3 mm 0.12 in3.0 mm 0.12 in3.0 mm
09:34 PM 51.4°F10.8°C 49.8°F9.9°C 94% 0.2 mph NW0.3 kmh NW 1.1 mph1.8 kmh 29.74 in1007.1 mb 0.06 in1.5 mm 0.12 in3.0 mm 0.13 in3.3 mm
09:39 PM 51.4°F10.8°C 49.8°F9.9°C 94% 0.7 mph NNW1.1 kmh NNW 3.1 mph5.0 kmh 29.73 in1006.8 mb 0.06 in1.5 mm 0.00 in0.0 mm 0.14 in3.6 mm
09:44 PM 51.4°F10.8°C 49.8°F9.9°C 94% 0.4 mph NW0.6 kmh NW 2.0 mph3.2 kmh 29.73 in1006.8 mb 0.07 in1.8 mm 0.12 in3.0 mm 0.16 in4.1 mm
09:49 PM 51.3°F10.7°C 49.6°F9.8°C 94% 1.8 mph NW2.9 kmh NW 3.1 mph5.0 kmh 29.73 in1006.8 mb 0.08 in2.0 mm 0.12 in3.0 mm 0.17 in4.3 mm
09:54 PM 51.3°F10.7°C 49.6°F9.8°C 94% 2.0 mph NW3.2 kmh NW 4.3 mph6.9 kmh 29.73 in1006.8 mb 0.08 in2.0 mm 0.00 in0.0 mm 0.17 in4.3 mm
09:59 PM 51.3°F10.7°C 49.6°F9.8°C 94% 0.7 mph NW1.1 kmh NW 4.3 mph6.9 kmh 29.73 in1006.8 mb 0.08 in2.0 mm 0.00 in0.0 mm 0.17 in4.3 mm
10:04 PM 51.1°F10.6°C 49.5°F9.7°C 94% 2.2 mph NW3.5 kmh NW 6.3 mph10.1 kmh 29.72 in1006.4 mb 0.07 in1.8 mm 0.00 in0.0 mm 0.17 in4.3 mm
10:09 PM 51.1°F10.6°C 49.5°F9.7°C 94% 0.9 mph N1.4 kmh N 3.1 mph5.0 kmh 29.73 in1006.8 mb 0.08 in2.0 mm 0.12 in3.0 mm 0.18 in4.6 mm
10:14 PM 51.1°F10.6°C 49.5°F9.7°C 94% 0.2 mph NW0.3 kmh NW 2.0 mph3.2 kmh 29.73 in1006.8 mb 0.08 in2.0 mm 0.00 in0.0 mm 0.18 in4.6 mm
10:19 PM 51.1°F10.6°C 49.5°F9.7°C 94% 1.1 mph N1.8 kmh N 3.1 mph5.0 kmh 29.73 in1006.8 mb 0.07 in1.8 mm 0.00 in0.0 mm 0.18 in4.6 mm
10:24 PM 51.1°F10.6°C 49.5°F9.7°C 94% 0.2 mph WSW0.3 kmh WSW 3.1 mph5.0 kmh 29.73 in1006.8 mb 0.07 in1.8 mm 0.00 in0.0 mm 0.18 in4.6 mm
10:29 PM 50.9°F10.5°C 49.3°F9.6°C 94% Calm Calm 1.1 mph1.8 kmh 29.73 in1006.8 mb 0.06 in1.5 mm 0.00 in0.0 mm 0.18 in4.6 mm
10:34 PM 50.9°F10.5°C 49.3°F9.6°C 94% Calm Calm -- 29.73 in1006.8 mb 0.05 in1.3 mm 0.00 in0.0 mm 0.18 in4.6 mm
10:39 PM 50.7°F10.4°C 49.1°F9.5°C 94% Calm Calm -- 29.74 in1007.1 mb 0.04 in1.0 mm 0.00 in0.0 mm 0.18 in4.6 mm
10:44 PM 50.7°F10.4°C 49.1°F9.5°C 94% Calm Calm -- 29.74 in1007.1 mb 0.04 in1.0 mm 0.00 in0.0 mm 0.19 in4.8 mm
10:49 PM 50.7°F10.4°C 49.1°F9.5°C 94% Calm Calm -- 29.74 in1007.1 mb 0.03 in0.8 mm 0.00 in0.0 mm 0.19 in4.8 mm
10:54 PM 50.7°F10.4°C 49.1°F9.5°C 94% Calm Calm -- 29.74 in1007.1 mb 0.02 in0.5 mm 0.00 in0.0 mm 0.19 in4.8 mm
10:59 PM 50.7°F10.4°C 49.1°F9.5°C 94% Calm Calm -- 29.74 in1007.1 mb 0.02 in0.5 mm 0.00 in0.0 mm 0.19 in4.8 mm
11:04 PM 50.7°F10.4°C 49.1°F9.5°C 94% Calm Calm -- 29.73 in1006.8 mb 0.02 in0.5 mm 0.00 in0.0 mm 0.15 in3.8 mm
11:09 PM 50.7°F10.4°C 49.1°F9.5°C 94% Calm Calm -- 29.73 in1006.8 mb 0.02 in0.5 mm 0.00 in0.0 mm 0.01 in0.3 mm
11:14 PM 50.7°F10.4°C 49.1°F9.5°C 94% Calm Calm -- 29.73 in1006.8 mb 0.02 in0.5 mm 0.00 in0.0 mm 0.01 in0.3 mm
11:19 PM 50.7°F10.4°C 49.1°F9.5°C 94% Calm Calm -- 29.73 in1006.8 mb 0.02 in0.5 mm 0.00 in0.0 mm 0.01 in0.3 mm
11:24 PM 50.7°F10.4°C 49.1°F9.5°C 94% Calm Calm -- 29.73 in1006.8 mb 0.03 in0.8 mm 0.12 in3.0 mm 0.02 in0.5 mm
11:29 PM 50.5°F10.3°C 48.9°F9.4°C 94% Calm Calm -- 29.73 in1006.8 mb 0.03 in0.8 mm 0.00 in0.0 mm 0.02 in0.5 mm
11:34 PM 50.7°F10.4°C 49.1°F9.5°C 94% Calm Calm -- 29.73 in1006.8 mb 0.04 in1.0 mm 0.12 in3.0 mm 0.03 in0.8 mm
11:39 PM 50.7°F10.4°C 49.3°F9.6°C 95% Calm Calm -- 29.73 in1006.8 mb 0.04 in1.0 mm 0.00 in0.0 mm 0.03 in0.8 mm
11:44 PM 50.7°F10.4°C 49.3°F9.6°C 95% Calm Calm -- 29.73 in1006.8 mb 0.04 in1.0 mm 0.00 in0.0 mm 0.04 in1.0 mm
11:49 PM 50.7°F10.4°C 49.3°F9.6°C 95% Calm Calm -- 29.72 in1006.4 mb 0.05 in1.3 mm 0.12 in3.0 mm 0.05 in1.3 mm
11:54 PM 50.7°F10.4°C 49.3°F9.6°C 95% Calm Calm -- 29.72 in1006.4 mb 0.06 in1.5 mm 0.12 in3.0 mm 0.06 in1.5 mm
11:59 PM 50.7°F10.4°C 49.3°F9.6°C 95% Calm Calm -- 29.72 in1006.4 mb 0.06 in1.5 mm 0.00 in0.0 mm 0.06 in1.5 mm